Time;durP1;ratioP1;P1;durP2;ratioP2;P2;SDS_P1;SDS_P2;PMS_P1;PMS_P2;Temp;Humidity;BMP_temperature;BMP_pressure;BME280_temperature;BME280_humidity;BME280_pressure;Samples;Min_cycle;Max_cycle;Signal;HPM_P1;HPM_P2
2021/08/10 00:00:08;;;;;;;5.82;5.30;;;15.10;99.90;;;;;;5053579;28;20207;-72
2021/08/10 00:02:37;;;;;;;6.50;4.60;;;15.10;99.90;;;;;;5054628;28;20211;-73
2021/08/10 00:05:06;;;;;;;6.75;5.00;;;15.00;99.90;;;;;;5060157;28;20290;-72
2021/08/10 00:07:33;;;;;;;7.22;5.13;;;15.00;99.90;;;;;;5050280;28;20665;-74
2021/08/10 00:10:00;;;;;;;7.13;4.93;;;15.00;99.90;;;;;;5054290;28;20211;-74
2021/08/10 00:12:27;;;;;;;7.85;5.20;;;14.90;99.90;;;;;;5045270;28;20218;-70
2021/08/10 00:14:54;;;;;;;5.20;4.70;;;14.90;99.90;;;;;;5062974;28;20231;-74
2021/08/10 00:17:22;;;;;;;10.55;5.07;;;14.90;99.90;;;;;;5049447;28;20210;-69
2021/08/10 00:19:50;;;;;;;6.82;5.40;;;14.90;99.90;;;;;;5052473;28;20203;-72
2021/08/10 00:22:17;;;;;;;9.25;5.25;;;14.90;99.90;;;;;;5047564;28;20208;-72
2021/08/10 00:24:44;;;;;;;5.90;5.30;;;14.90;99.90;;;;;;5047573;28;20212;-71
2021/08/10 00:27:11;;;;;;;9.32;5.70;;;14.90;99.90;;;;;;5055538;28;20195;-73
2021/08/10 00:29:38;;;;;;;11.98;7.18;;;14.90;99.90;;;;;;5048466;28;20199;-73
2021/08/10 00:32:06;;;;;;;8.05;5.72;;;14.90;99.90;;;;;;5050509;28;20195;-72
2021/08/10 00:34:33;;;;;;;6.93;5.00;;;14.90;99.90;;;;;;5050035;28;20218;-71
2021/08/10 00:37:04;;;;;;;6.90;4.65;;;14.90;99.90;;;;;;5058249;28;20214;-72
2021/08/10 00:39:32;;;;;;;7.78;4.95;;;15.00;99.90;;;;;;5049646;28;20232;-73
2021/08/10 00:41:59;;;;;;;7.68;5.07;;;14.90;99.90;;;;;;5051463;28;20603;-72
2021/08/10 00:44:26;;;;;;;7.18;5.60;;;15.00;99.90;;;;;;5054436;28;20196;-72
2021/08/10 00:46:53;;;;;;;8.57;6.03;;;14.90;99.90;;;;;;5049123;28;20544;-73
2021/08/10 00:49:20;;;;;;;7.57;5.38;;;15.00;99.90;;;;;;5048267;28;20219;-71
2021/08/10 00:51:49;;;;;;;5.35;4.85;;;15.00;99.90;;;;;;5050401;28;20213;-74
2021/08/10 00:54:18;;;;;;;10.48;5.78;;;15.00;99.90;;;;;;5049388;28;20225;-73
2021/08/10 00:56:47;;;;;;;7.88;4.88;;;14.90;99.90;;;;;;5053301;28;20200;-73
2021/08/10 00:59:14;;;;;;;7.50;5.00;;;14.90;99.90;;;;;;5050734;28;20247;-73
2021/08/10 01:01:41;;;;;;;8.73;5.38;;;14.90;99.90;;;;;;5047952;28;20227;-73
2021/08/10 01:04:09;;;;;;;11.15;5.22;;;14.80;99.90;;;;;;5048637;28;20202;-72
2021/08/10 01:06:49;;;;;;;8.25;5.75;;;14.80;99.90;;;;;;5049749;28;20207;-75
2021/08/10 01:09:22;;;;;;;8.40;5.95;;;14.80;99.90;;;;;;5035409;28;20223;-73
2021/08/10 01:11:56;;;;;;;5.97;5.38;;;14.80;99.90;;;;;;5042681;28;20204;-71
2021/08/10 01:14:48;;;;;;;6.78;5.70;;;14.80;99.90;;;;;;5035975;28;20600;-73
2021/08/10 01:17:23;;;;;;;8.98;6.18;;;14.80;99.90;;;;;;5052539;28;20646;-71
2021/08/10 01:20:23;;;;;;;8.38;6.78;;;14.80;99.90;;;;;;5053773;28;20196;-73
2021/08/10 01:22:54;;;;;;;10.95;5.97;;;14.80;99.90;;;;;;5056087;28;20571;-73
2021/08/10 01:25:38;;;;;;;5.68;4.97;;;14.80;99.90;;;;;;5053507;28;20203;-72
2021/08/10 01:28:24;;;;;;;7.57;5.85;;;14.80;99.90;;;;;;5033283;28;20226;-73
2021/08/10 01:31:04;;;;;;;7.75;6.00;;;14.80;99.90;;;;;;5052545;28;20195;-74
2021/08/10 01:33:37;;;;;;;8.23;6.57;;;14.80;99.90;;;;;;5036192;28;21293;-73
2021/08/10 01:36:05;;;;;;;9.85;6.88;;;14.80;99.90;;;;;;5051150;28;20282;-73
2021/08/10 01:38:33;;;;;;;10.48;6.80;;;14.70;99.90;;;;;;5052709;28;20228;-74
2021/08/10 01:41:02;;;;;;;7.90;6.93;;;14.70;99.90;;;;;;5052674;28;20202;-73
2021/08/10 01:43:30;;;;;;;10.00;6.70;;;14.70;99.90;;;;;;5053050;28;20203;-72
2021/08/10 01:45:59;;;;;;;9.20;7.05;;;14.80;99.90;;;;;;5051898;28;20202;-73
2021/08/10 01:48:27;;;;;;;8.80;7.00;;;14.80;99.90;;;;;;5050572;28;20230;-73
2021/08/10 01:50:57;;;;;;;11.40;7.07;;;14.80;99.90;;;;;;5052608;28;20207;-73
2021/08/10 01:53:24;;;;;;;17.00;8.45;;;14.80;99.90;;;;;;5052437;28;20242;-72
2021/08/10 01:55:53;;;;;;;14.65;7.78;;;14.90;99.90;;;;;;5047698;28;20231;-71
2021/08/10 01:58:21;;;;;;;14.85;9.57;;;15.00;99.90;;;;;;5052481;28;20228;-73
2021/08/10 02:00:49;;;;;;;9.85;6.78;;;15.00;99.90;;;;;;5051873;28;20211;-72
2021/08/10 02:03:17;;;;;;;11.90;7.45;;;15.00;99.90;;;;;;5052444;28;20210;-71
2021/08/10 02:05:45;;;;;;;9.43;7.18;;;15.10;99.90;;;;;;5053547;28;20215;-75
2021/08/10 02:08:16;;;;;;;8.10;6.55;;;15.00;99.90;;;;;;5053380;28;20219;-74
2021/08/10 02:10:46;;;;;;;7.03;6.28;;;15.10;99.90;;;;;;5053714;28;20562;-71
2021/08/10 02:13:15;;;;;;;10.85;6.50;;;15.10;99.90;;;;;;5052163;28;20353;-71
2021/08/10 02:15:45;;;;;;;10.32;5.50;;;15.10;99.90;;;;;;5044911;28;20616;-73
2021/08/10 02:18:13;;;;;;;8.65;5.45;;;15.10;99.90;;;;;;5051592;28;20303;-70
2021/08/10 02:20:43;;;;;;;8.52;6.10;;;15.10;99.90;;;;;;5051466;28;20658;-73
2021/08/10 02:23:13;;;;;;;8.98;6.93;;;15.10;99.90;;;;;;5052595;28;20203;-72
2021/08/10 02:25:44;;;;;;;8.07;5.38;;;15.10;99.90;;;;;;5050978;28;20195;-72
2021/08/10 02:28:15;;;;;;;8.52;5.25;;;15.00;99.90;;;;;;5051442;28;20234;-73
2021/08/10 02:30:48;;;;;;;9.18;5.82;;;15.10;99.90;;;;;;5058386;28;20211;-74
2021/08/10 02:33:17;;;;;;;10.50;5.28;;;15.10;99.90;;;;;;5051679;28;20210;-72
2021/08/10 02:35:46;;;;;;;7.35;5.90;;;15.10;99.90;;;;;;5051406;28;20764;-73
2021/08/10 02:38:18;;;;;;;11.50;6.05;;;15.10;99.90;;;;;;5050479;28;20239;-74
2021/08/10 02:40:49;;;;;;;10.38;5.15;;;15.00;99.90;;;;;;5043689;28;20286;-74
2021/08/10 02:43:18;;;;;;;7.97;5.50;;;15.00;99.90;;;;;;5050531;28;20205;-72
2021/08/10 02:45:45;;;;;;;9.38;6.18;;;15.10;99.90;;;;;;5051029;28;20253;-72
2021/08/10 02:48:13;;;;;;;6.93;5.70;;;15.10;99.90;;;;;;5050250;28;20215;-72
2021/08/10 02:50:42;;;;;;;7.35;5.40;;;15.10;99.90;;;;;;5061325;28;20538;-72
2021/08/10 02:53:09;;;;;;;9.38;6.28;;;15.20;99.90;;;;;;5053216;28;20200;-75
2021/08/10 02:55:40;;;;;;;9.63;6.47;;;15.20;99.90;;;;;;5052212;28;20212;-72
2021/08/10 02:58:11;;;;;;;10.43;6.18;;;15.20;99.90;;;;;;5050863;28;20222;-74
2021/08/10 03:00:41;;;;;;;8.25;6.15;;;15.20;99.90;;;;;;5052805;28;20207;-72
2021/08/10 03:03:13;;;;;;;12.65;6.20;;;15.30;99.90;;;;;;5054073;28;20210;-73
2021/08/10 03:05:42;;;;;;;7.10;5.55;;;15.30;99.90;;;;;;5055278;28;20199;-73
2021/08/10 03:08:13;;;;;;;10.95;6.00;;;15.30;99.90;;;;;;5062060;28;20231;-74
2021/08/10 03:10:43;;;;;;;6.68;5.88;;;15.30;99.90;;;;;;5054998;28;20647;-74
2021/08/10 03:13:12;;;;;;;8.68;6.60;;;15.20;99.90;;;;;;5055532;28;20573;-73
2021/08/10 03:15:41;;;;;;;10.65;7.70;;;15.20;99.90;;;;;;5052729;28;20569;-73
2021/08/10 03:18:12;;;;;;;11.38;6.43;;;15.10;99.90;;;;;;5055234;28;20228;-73
2021/08/10 03:20:42;;;;;;;9.60;6.28;;;15.00;99.90;;;;;;5054015;28;20211;-73
2021/08/10 03:23:14;;;;;;;10.13;6.03;;;15.00;99.90;;;;;;5055621;28;20219;-73
2021/08/10 03:25:43;;;;;;;10.68;7.47;;;15.00;99.90;;;;;;5055066;28;20195;-73
2021/08/10 03:28:13;;;;;;;15.02;7.03;;;14.90;99.90;;;;;;5055059;28;20227;-74
2021/08/10 03:30:42;;;;;;;14.35;7.10;;;14.90;99.90;;;;;;5055013;28;20203;-73
2021/08/10 03:33:10;;;;;;;8.77;6.30;;;14.90;99.90;;;;;;5056891;28;20202;-72
2021/08/10 03:35:38;;;;;;;8.00;6.40;;;14.80;99.90;;;;;;5057092;28;20696;-74
2021/08/10 03:38:06;;;;;;;9.68;8.02;;;14.80;99.90;;;;;;5053528;28;20230;-73
2021/08/10 03:40:33;;;;;;;9.70;7.10;;;14.80;99.90;;;;;;5054095;28;20203;-72
2021/08/10 03:43:01;;;;;;;11.60;7.53;;;14.80;99.90;;;;;;5055701;28;20199;-73
2021/08/10 03:45:30;;;;;;;10.50;7.95;;;14.70;99.90;;;;;;5054091;28;20531;-72
2021/08/10 03:47:59;;;;;;;8.45;7.53;;;14.70;99.90;;;;;;5052577;28;20219;-74
2021/08/10 03:50:27;;;;;;;11.63;8.45;;;14.80;99.90;;;;;;5049804;28;20199;-73
2021/08/10 03:52:55;;;;;;;12.52;8.05;;;14.80;99.90;;;;;;5052274;28;20208;-74
2021/08/10 03:55:22;;;;;;;14.10;8.48;;;14.90;99.90;;;;;;5051503;28;20220;-73
2021/08/10 03:57:51;;;;;;;20.55;9.48;;;14.90;99.90;;;;;;5052507;28;20227;-73
2021/08/10 04:00:19;;;;;;;12.73;7.45;;;14.90;99.90;;;;;;5053991;28;20211;-72
2021/08/10 04:02:47;;;;;;;10.20;7.57;;;14.90;99.90;;;;;;5057037;28;20215;-73
2021/08/10 04:05:16;;;;;;;9.32;7.13;;;15.00;99.90;;;;;;5056825;28;20207;-72
2021/08/10 04:07:43;;;;;;;8.30;6.20;;;14.90;99.90;;;;;;5054391;28;20219;-74
2021/08/10 04:10:12;;;;;;;15.27;9.20;;;15.00;99.90;;;;;;5053513;28;20206;-72
2021/08/10 04:12:39;;;;;;;10.63;7.88;;;15.00;99.90;;;;;;5056975;28;20208;-73
2021/08/10 04:15:07;;;;;;;10.50;7.30;;;15.00;99.90;;;;;;5053636;28;20243;-73
2021/08/10 04:17:38;;;;;;;9.80;8.48;;;15.10;99.90;;;;;;5053227;28;20239;-72
2021/08/10 04:20:09;;;;;;;9.93;8.02;;;15.00;99.90;;;;;;5053962;28;20669;-74
2021/08/10 04:22:36;;;;;;;12.65;7.50;;;15.00;99.90;;;;;;5050639;28;20205;-73
2021/08/10 04:25:04;;;;;;;17.83;7.97;;;15.10;99.90;;;;;;5050956;28;20207;-73
2021/08/10 04:27:32;;;;;;;10.80;8.20;;;15.20;99.90;;;;;;5052751;28;20220;-71
2021/08/10 04:29:59;;;;;;;9.20;7.40;;;15.20;99.90;;;;;;5047404;28;20195;-73
2021/08/10 04:32:26;;;;;;;18.83;8.20;;;15.20;99.90;;;;;;5052747;28;20192;-73
2021/08/10 04:34:53;;;;;;;11.18;8.00;;;15.10;99.90;;;;;;5046280;28;20314;-73
2021/08/10 04:37:22;;;;;;;10.25;8.55;;;15.10;99.90;;;;;;5053478;28;20206;-73
2021/08/10 04:39:49;;;;;;;14.20;8.32;;;15.10;99.90;;;;;;5047535;28;20207;-71
2021/08/10 04:42:16;;;;;;;12.48;10.50;;;15.20;99.90;;;;;;5051535;28;20199;-71
2021/08/10 04:44:43;;;;;;;6.85;5.80;;;15.30;99.90;;;;;;5052579;28;20202;-70
2021/08/10 04:47:10;;;;;;;13.80;9.25;;;15.30;99.90;;;;;;5048952;28;20203;-69
2021/08/10 04:49:37;;;;;;;10.00;8.50;;;15.30;99.90;;;;;;5048439;28;20205;-70
2021/08/10 04:52:05;;;;;;;16.20;10.40;;;15.30;99.90;;;;;;5052934;28;20210;-72
2021/08/10 04:54:34;;;;;;;13.23;9.68;;;15.30;99.90;;;;;;5047536;28;20534;-70
2021/08/10 04:57:02;;;;;;;9.68;7.53;;;15.40;99.90;;;;;;5052209;28;20266;-70
2021/08/10 04:59:29;;;;;;;10.13;7.82;;;15.40;99.90;;;;;;5051990;28;20235;-70
2021/08/10 05:01:56;;;;;;;9.52;7.90;;;15.40;99.90;;;;;;5051933;28;20207;-70
2021/08/10 05:04:23;;;;;;;9.75;7.75;;;15.50;99.90;;;;;;5050046;28;20192;-70
2021/08/10 05:06:51;;;;;;;9.45;6.50;;;15.50;99.90;;;;;;5054744;28;20640;-69
2021/08/10 05:09:19;;;;;;;11.40;7.53;;;15.60;99.90;;;;;;5053392;28;20223;-70
2021/08/10 05:11:48;;;;;;;13.05;7.50;;;15.60;99.90;;;;;;5052387;28;20227;-70
2021/08/10 05:14:15;;;;;;;11.50;8.38;;;15.60;99.90;;;;;;5053343;28;20199;-70
2021/08/10 05:16:42;;;;;;;11.77;9.18;;;15.60;99.90;;;;;;5052653;28;20224;-71
2021/08/10 05:19:09;;;;;;;15.52;8.75;;;15.60;99.90;;;;;;5050977;28;20226;-69
2021/08/10 05:21:37;;;;;;;10.25;7.90;;;15.60;99.90;;;;;;5051829;28;20215;-71
2021/08/10 05:24:04;;;;;;;12.45;9.38;;;15.60;99.90;;;;;;5049997;28;20201;-71
2021/08/10 05:26:31;;;;;;;14.23;6.93;;;15.70;99.90;;;;;;5049000;28;20214;-70
2021/08/10 05:29:00;;;;;;;9.82;6.53;;;15.70;99.90;;;;;;5045796;28;20215;-71
2021/08/10 05:31:27;;;;;;;14.32;9.02;;;15.70;99.90;;;;;;5049531;28;20201;-72
2021/08/10 05:33:54;;;;;;;9.20;7.88;;;15.80;99.90;;;;;;5049351;28;20242;-71
2021/08/10 05:36:28;;;;;;;10.15;8.73;;;15.80;99.90;;;;;;5056923;28;20238;-72
2021/08/10 05:38:56;;;;;;;10.65;8.07;;;15.80;99.90;;;;;;5050242;28;20231;-71
2021/08/10 05:41:25;;;;;;;17.35;8.90;;;15.80;99.90;;;;;;5044484;28;20207;-71
2021/08/10 05:43:52;;;;;;;16.35;11.85;;;15.80;99.90;;;;;;5050610;28;20560;-71
2021/08/10 05:46:21;;;;;;;9.38;7.55;;;15.90;99.90;;;;;;5050237;28;20195;-71
2021/08/10 05:48:49;;;;;;;15.73;9.48;;;16.00;99.90;;;;;;5052978;28;20230;-72
2021/08/10 05:51:50;;;;;;;8.70;6.95;;;16.00;99.90;;;;;;5048318;28;20560;-71
2021/08/10 05:54:17;;;;;;;14.55;8.02;;;16.00;99.90;;;;;;5052466;28;20225;-72
2021/08/10 05:56:46;;;;;;;10.15;7.35;;;16.10;99.90;;;;;;5057328;28;20232;-72
2021/08/10 05:59:13;;;;;;;20.95;10.05;;;16.20;99.90;;;;;;5051163;28;20223;-71
2021/08/10 06:01:42;;;;;;;12.10;7.35;;;16.30;99.90;;;;;;5051276;28;20199;-71
2021/08/10 06:04:09;;;;;;;8.63;7.20;;;16.40;99.90;;;;;;5051674;28;20212;-71
2021/08/10 06:06:37;;;;;;;10.52;6.88;;;16.50;99.90;;;;;;5050348;28;20204;-71
2021/08/10 06:09:04;;;;;;;13.55;7.95;;;16.60;99.90;;;;;;5051993;28;20227;-71
2021/08/10 06:11:32;;;;;;;8.48;6.55;;;16.80;99.90;;;;;;5050959;28;20219;-71
2021/08/10 06:13:59;;;;;;;9.93;6.40;;;16.80;99.90;;;;;;5048141;28;20198;-72
2021/08/10 06:16:27;;;;;;;8.95;6.70;;;17.00;99.90;;;;;;5050803;28;20486;-71
2021/08/10 06:18:56;;;;;;;8.00;6.87;;;17.40;99.90;;;;;;5051395;28;20237;-72
2021/08/10 06:21:23;;;;;;;5.33;4.60;;;18.40;99.90;;;;;;5047569;28;20453;-70
2021/08/10 06:23:53;;;;;;;6.67;5.03;;;19.70;99.90;;;;;;5051455;28;20762;-71
2021/08/10 06:26:20;;;;;;;8.70;5.20;;;21.10;99.90;;;;;;5057189;28;20456;-72
2021/08/10 06:28:47;;;;;;;9.50;5.87;;;22.20;99.90;;;;;;5050272;28;20480;-70
2021/08/10 06:31:16;;;;;;;6.80;5.97;;;22.70;99.90;;;;;;5049735;28;20430;-72
2021/08/10 06:33:43;;;;;;;6.73;6.03;;;23.00;99.90;;;;;;5056139;28;20442;-70
2021/08/10 06:36:12;;;;;;;10.00;6.00;;;23.20;99.90;;;;;;5058201;28;20867;-71
2021/08/10 06:38:39;;;;;;;7.83;6.13;;;23.70;99.90;;;;;;5058596;28;20474;-71
2021/08/10 06:41:06;;;;;;;16.13;8.10;;;23.20;99.90;;;;;;5056796;28;20437;-71
2021/08/10 06:43:37;;;;;;;10.13;6.40;;;23.60;99.90;;;;;;5057271;28;20468;-71
2021/08/10 06:46:05;;;;;;;13.70;6.63;;;23.70;99.90;;;;;;5055617;28;20438;-71
2021/08/10 06:48:32;;;;;;;11.77;6.20;;;22.50;99.90;;;;;;5054073;28;20543;-71
2021/08/10 06:51:01;;;;;;;9.27;6.63;;;22.30;99.90;;;;;;5052955;28;20465;-70
2021/08/10 06:53:33;;;;;;;8.33;7.43;;;21.80;99.90;;;;;;5056194;28;20528;-71
2021/08/10 06:56:03;;;;;;;8.10;6.27;;;21.50;99.90;;;;;;5058591;28;20536;-71
2021/08/10 06:58:30;;;;;;;9.00;6.87;;;21.00;99.90;;;;;;5057950;28;20474;-71
2021/08/10 07:00:57;;;;;;;13.10;6.87;;;20.40;99.90;;;;;;5057747;28;20447;-72
2021/08/10 07:03:25;;;;;;;14.63;9.63;;;20.10;99.90;;;;;;5058100;28;20445;-72
2021/08/10 07:05:52;;;;;;;6.30;5.40;;;19.70;99.90;;;;;;5057275;28;20434;-73
2021/08/10 07:08:19;;;;;;;8.77;5.70;;;19.40;99.90;;;;;;5056553;28;20473;-70
2021/08/10 07:10:48;;;;;;;6.70;5.70;;;19.40;99.90;;;;;;5053509;28;20435;-69
2021/08/10 07:13:15;;;;;;;10.90;5.93;;;19.20;99.90;;;;;;5057320;28;20921;-71
2021/08/10 07:15:42;;;;;;;9.40;6.57;;;19.20;99.90;;;;;;5061747;28;20477;-71
2021/08/10 07:18:09;;;;;;;8.87;7.20;;;19.20;99.90;;;;;;5053355;28;20995;-70
2021/08/10 07:20:37;;;;;;;15.37;11.80;;;19.40;99.90;;;;;;5054166;28;20457;-70
2021/08/10 07:23:04;;;;;;;6.87;5.27;;;19.80;99.90;;;;;;5055061;28;20434;-70
2021/08/10 07:25:31;;;;;;;10.10;7.30;;;19.90;99.90;;;;;;5055479;28;20446;-70
2021/08/10 07:27:59;;;;;;;14.40;9.30;;;19.90;99.90;;;;;;5059828;28;20469;-71
2021/08/10 07:30:28;;;;;;;12.33;9.07;;;20.00;99.90;;;;;;5055135;28;20549;-70
2021/08/10 07:32:55;;;;;;;7.03;6.13;;;19.90;99.90;;;;;;5055600;28;20442;-72
2021/08/10 07:35:22;;;;;;;7.53;6.57;;;19.90;99.90;;;;;;5054032;28;20438;-72
2021/08/10 07:37:49;;;;;;;8.73;6.30;;;19.40;99.90;;;;;;5054860;28;21018;-72
2021/08/10 07:40:17;;;;;;;7.30;6.00;;;19.20;99.90;;;;;;5054185;28;20438;-72
2021/08/10 07:42:44;;;;;;;6.63;5.50;;;19.00;99.90;;;;;;5056179;28;20444;-70
2021/08/10 07:45:13;;;;;;;10.90;6.50;;;18.90;99.90;;;;;;5056055;28;20449;-72
2021/08/10 07:47:40;;;;;;;8.30;5.47;;;18.80;99.90;;;;;;5060302;28;20953;-71
2021/08/10 07:50:08;;;;;;;12.40;6.73;;;18.90;99.90;;;;;;5053757;28;20909;-70
2021/08/10 07:52:35;;;;;;;11.17;5.47;;;19.10;99.90;;;;;;5054482;28;20430;-72
2021/08/10 07:55:02;;;;;;;7.77;6.03;;;19.30;99.90;;;;;;5056309;28;20453;-73
2021/08/10 07:57:29;;;;;;;12.17;6.43;;;19.50;99.90;;;;;;5053908;28;20486;-71
2021/08/10 07:59:56;;;;;;;7.27;5.87;;;19.60;99.90;;;;;;5055416;28;20457;-71
2021/08/10 08:02:25;;;;;;;13.03;5.77;;;20.00;99.90;;;;;;5060245;28;20442;-72
2021/08/10 08:04:52;;;;;;;10.30;5.57;;;20.40;99.90;;;;;;5054294;28;20445;-71
2021/08/10 08:07:19;;;;;;;5.33;4.83;;;21.30;99.90;;;;;;5053889;28;20888;-72
2021/08/10 08:09:47;;;;;;;10.73;4.90;;;22.20;99.90;;;;;;5054888;28;20826;-72
2021/08/10 08:12:14;;;;;;;6.80;5.50;;;22.10;99.90;;;;;;5053895;28;20438;-72
2021/08/10 08:14:43;;;;;;;8.17;5.93;;;22.00;99.90;;;;;;5057471;28;20454;-74
2021/08/10 08:17:10;;;;;;;11.00;5.40;;;22.50;99.90;;;;;;5052149;28;20550;-70
2021/08/10 08:19:39;;;;;;;10.03;5.87;;;22.20;99.90;;;;;;5055804;28;20866;-71
2021/08/10 08:22:07;;;;;;;10.40;5.87;;;22.10;99.90;;;;;;5055654;28;20477;-70
2021/08/10 08:24:34;;;;;;;6.70;5.20;;;22.00;99.90;;;;;;5054580;28;20811;-71
2021/08/10 08:27:01;;;;;;;8.50;5.83;;;22.80;99.90;;;;;;5053709;28;20442;-70
2021/08/10 08:29:28;;;;;;;11.37;6.80;;;23.40;99.90;;;;;;5053894;28;20829;-70
2021/08/10 08:31:56;;;;;;;7.60;5.57;;;23.20;99.90;;;;;;5053402;28;20449;-70
2021/08/10 08:34:23;;;;;;;16.60;9.10;;;23.10;99.90;;;;;;5050808;28;20449;-71
2021/08/10 08:36:52;;;;;;;11.13;5.73;;;22.80;99.90;;;;;;5054009;28;20477;-70
2021/08/10 08:39:19;;;;;;;6.27;5.50;;;23.40;99.90;;;;;;5053342;28;20487;-71
2021/08/10 08:41:46;;;;;;;13.87;10.50;;;23.70;99.90;;;;;;5053896;28;20892;-71
2021/08/10 08:44:16;;;;;;;10.97;6.47;;;24.20;99.90;;;;;;5052445;28;20469;-73
2021/08/10 08:46:46;;;;;;;7.90;6.00;;;24.00;99.90;;;;;;5055030;28;20438;-72
2021/08/10 08:49:15;;;;;;;12.70;9.53;;;22.90;99.90;;;;;;5053350;28;20960;-69
2021/08/10 08:51:46;;;;;;;7.40;6.10;;;22.10;99.90;;;;;;5053150;28;20454;-73
2021/08/10 08:54:15;;;;;;;10.03;7.80;;;21.80;99.90;;;;;;5053771;28;20445;-70
2021/08/10 08:56:42;;;;;;;8.23;6.67;;;21.50;99.90;;;;;;5053706;28;20536;-72
2021/08/10 08:59:11;;;;;;;12.47;8.87;;;21.00;99.90;;;;;;5052264;28;20988;-71
2021/08/10 09:01:39;;;;;;;10.80;8.20;;;20.80;99.90;;;;;;5035299;28;20818;-70
2021/08/10 09:04:08;;;;;;;8.70;6.40;;;20.70;99.90;;;;;;5051085;28;20449;-70
2021/08/10 09:06:35;;;;;;;12.50;6.37;;;20.80;99.90;;;;;;5046670;28;20470;-71
2021/08/10 09:09:22;;;;;;;11.73;9.80;;;20.80;99.90;;;;;;5049213;28;20498;-71
2021/08/10 09:11:51;;;;;;;9.00;7.30;;;20.90;99.90;;;;;;5028527;28;20992;-71
2021/08/10 09:14:18;;;;;;;8.93;6.37;;;20.80;99.90;;;;;;5053069;28;20441;-72
2021/08/10 09:17:07;;;;;;;7.47;6.53;;;20.60;99.90;;;;;;5048509;28;21132;-71
2021/08/10 09:19:46;;;;;;;11.53;9.20;;;20.70;99.90;;;;;;5040721;28;20452;-71
2021/08/10 09:22:18;;;;;;;6.83;4.53;;;20.90;99.90;;;;;;5052060;28;20444;-70
2021/08/10 09:24:50;;;;;;;7.50;5.97;;;21.40;99.90;;;;;;5055787;28;20798;-73
2021/08/10 09:27:29;;;;;;;6.77;5.30;;;21.50;99.90;;;;;;5052615;28;20491;-72
2021/08/10 09:29:57;;;;;;;7.53;5.30;;;21.70;99.90;;;;;;5052773;28;20479;-71
2021/08/10 09:32:25;;;;;;;9.33;5.90;;;22.10;99.90;;;;;;5051603;28;20442;-71
2021/08/10 09:35:14;;;;;;;7.03;5.07;;;22.40;99.90;;;;;;5053044;28;20442;-71
2021/08/10 09:37:41;;;;;;;7.30;5.60;;;22.20;99.90;;;;;;5052340;28;20869;-71
2021/08/10 09:40:30;;;;;;;7.80;5.53;;;22.00;99.90;;;;;;5052613;28;20805;-72
2021/08/10 09:43:19;;;;;;;8.47;6.03;;;21.30;99.90;;;;;;5052314;28;20920;-72
2021/08/10 09:45:48;;;;;;;11.23;8.90;;;21.20;99.90;;;;;;5052946;28;20444;-71
2021/08/10 09:48:15;;;;;;;11.67;8.80;;;21.00;99.90;;;;;;5054054;28;20461;-76
2021/08/10 09:50:44;;;;;;;9.30;8.40;;;20.70;99.90;;;;;;5053189;28;20434;-76
2021/08/10 09:53:19;;;;;;;9.90;8.97;;;20.30;99.90;;;;;;5050212;28;20447;-72
2021/08/10 09:55:59;;;;;;;10.60;9.50;;;19.90;99.90;;;;;;5048468;28;20448;-72
2021/08/10 09:58:26;;;;;;;12.33;11.03;;;19.60;99.90;;;;;;5051709;28;20976;-72
2021/08/10 10:00:55;;;;;;;11.17;8.87;;;19.20;99.90;;;;;;5051772;28;20991;-73
2021/08/10 10:03:24;;;;;;;11.30;9.43;;;18.70;99.90;;;;;;5051217;28;20855;-73
2021/08/10 10:05:53;;;;;;;11.97;7.10;;;18.60;99.90;;;;;;5052075;28;20461;-70
2021/08/10 10:08:21;;;;;;;9.00;7.13;;;18.60;99.90;;;;;;5050953;28;20461;-70
2021/08/10 10:10:51;;;;;;;5.57;5.03;;;19.00;99.90;;;;;;5051258;28;20446;-71
2021/08/10 10:13:21;;;;;;;6.83;5.20;;;20.10;99.90;;;;;;5051112;28;20481;-71
2021/08/10 10:15:49;;;;;;;4.87;3.97;;;21.70;99.90;;;;;;5051485;28;20450;-70
2021/08/10 10:18:18;;;;;;;5.70;4.97;;;22.90;99.90;;;;;;5051061;28;20493;-70
2021/08/10 10:20:47;;;;;;;7.87;4.97;;;24.00;99.90;;;;;;5050961;28;20472;-71
2021/08/10 10:23:19;;;;;;;5.70;5.10;;;24.80;99.90;;;;;;5052434;28;20444;-69
2021/08/10 10:25:49;;;;;;;7.03;4.70;;;25.30;99.90;;;;;;5053333;28;20442;-71
2021/08/10 10:28:16;;;;;;;5.70;4.73;;;25.30;99.90;;;;;;5052662;28;20454;-71
2021/08/10 10:30:49;;;;;;;8.70;5.10;;;25.70;99.90;;;;;;5054113;28;20958;-70
2021/08/10 10:33:16;;;;;;;6.83;4.97;;;25.90;99.90;;;;;;5055745;28;20442;-69
2021/08/10 10:35:45;;;;;;;6.93;5.30;;;26.10;99.90;;;;;;5052327;28;20485;-68
2021/08/10 10:38:14;;;;;;;5.73;4.90;;;26.50;99.90;;;;;;5050431;28;20516;-71
2021/08/10 10:40:41;;;;;;;7.87;5.53;;;26.70;98.60;;;;;;5051498;28;20457;-72
2021/08/10 10:43:09;;;;;;;9.30;6.30;;;26.90;98.80;;;;;;5050250;28;20457;-68
2021/08/10 10:45:39;;;;;;;6.77;6.20;;;25.90;98.20;;;;;;5047128;28;20444;-70
2021/08/10 10:48:45;;;;;;;6.87;5.93;;;24.60;99.90;;;;;;5049608;28;20469;-70
2021/08/10 10:51:15;;;;;;;9.23;7.37;;;23.60;99.90;;;;;;5048665;28;20499;-71
2021/08/10 10:53:43;;;;;;;6.43;5.80;;;23.60;99.90;;;;;;5052617;28;20529;-72
2021/08/10 10:56:33;;;;;;;8.80;7.13;;;23.20;99.90;;;;;;5051467;28;20442;-71
2021/08/10 10:59:27;;;;;;;6.83;6.13;;;23.00;99.90;;;;;;5051253;28;20470;-70
2021/08/10 11:02:10;;;;;;;15.53;5.70;;;23.10;99.90;;;;;;5040856;28;20446;-70
2021/08/10 11:04:39;;;;;;;6.80;6.10;;;23.30;99.90;;;;;;5059377;28;20454;-69
2021/08/10 11:07:34;;;;;;;6.97;6.30;;;23.50;99.90;;;;;;5052580;28;20438;-72
2021/08/10 11:10:02;;;;;;;4.87;4.47;;;23.70;99.90;;;;;;5049592;28;20513;-70
2021/08/10 11:12:44;;;;;;;5.73;4.97;;;24.10;99.90;;;;;;5052851;28;20786;-72
2021/08/10 11:15:13;;;;;;;5.20;4.67;;;24.10;99.90;;;;;;5049029;28;20540;-71
2021/08/10 11:17:42;;;;;;;7.00;5.00;;;24.30;99.90;;;;;;5046305;28;20501;-71
2021/08/10 11:20:25;;;;;;;6.63;4.87;;;24.00;99.00;;;;;;5051330;28;20453;-72
2021/08/10 11:23:31;;;;;;;7.10;5.03;;;23.80;99.90;;;;;;5035542;28;20441;-72
2021/08/10 11:26:31;;;;;;;7.10;5.57;;;23.80;99.50;;;;;;5047667;28;21002;-73
2021/08/10 11:28:58;;;;;;;6.30;5.20;;;23.80;99.90;;;;;;5053669;28;20874;-70
2021/08/10 11:31:34;;;;;;;7.37;4.70;;;24.10;99.90;;;;;;5055302;28;20457;-71
2021/08/10 11:34:01;;;;;;;5.93;4.90;;;24.30;98.80;;;;;;5054959;28;20824;-72
2021/08/10 11:36:30;;;;;;;6.97;5.20;;;24.40;99.30;;;;;;5052851;28;20446;-72
2021/08/10 11:39:10;;;;;;;7.53;4.93;;;24.40;99.50;;;;;;5054018;28;20495;-71
2021/08/10 11:41:39;;;;;;;13.10;6.20;;;24.40;99.00;;;;;;5054090;28;20454;-71
2021/08/10 11:44:18;;;;;;;7.03;4.43;;;24.20;99.50;;;;;;5055451;28;20439;-71
2021/08/10 11:46:46;;;;;;;5.87;4.40;;;23.90;99.30;;;;;;5054655;28;20449;-72
2021/08/10 11:49:19;;;;;;;9.77;4.73;;;23.50;99.60;;;;;;5052240;28;20465;-73
2021/08/10 11:51:49;;;;;;;9.37;7.00;;;23.50;99.90;;;;;;5034384;28;20956;-72
2021/08/10 11:54:18;;;;;;;6.13;5.53;;;23.40;99.90;;;;;;5053700;28;20442;-72
2021/08/10 11:56:46;;;;;;;6.87;5.20;;;23.30;99.90;;;;;;5052639;28;20445;-70
2021/08/10 11:59:18;;;;;;;5.97;5.40;;;23.40;99.90;;;;;;5052457;28;20458;-71
2021/08/10 12:01:46;;;;;;;12.93;6.37;;;23.50;99.90;;;;;;5053620;28;20995;-71
2021/08/10 12:04:14;;;;;;;6.13;5.20;;;23.60;99.90;;;;;;5053782;28;20442;-70
2021/08/10 12:06:48;;;;;;;6.40;5.50;;;23.60;99.90;;;;;;5053647;28;20438;-72
2021/08/10 12:09:17;;;;;;;9.83;6.27;;;23.30;99.90;;;;;;5055993;28;20469;-72
2021/08/10 12:11:46;;;;;;;7.07;4.93;;;23.40;99.90;;;;;;5050843;28;20455;-70
2021/08/10 12:14:15;;;;;;;7.00;5.80;;;23.50;99.90;;;;;;5053725;28;20454;-71
2021/08/10 12:17:02;;;;;;;8.03;5.30;;;23.50;99.90;;;;;;5057063;28;20805;-70
2021/08/10 12:19:32;;;;;;;9.70;5.50;;;23.80;99.90;;;;;;5047547;28;21030;-72
2021/08/10 12:22:01;;;;;;;7.37;6.30;;;23.90;99.90;;;;;;5049199;28;20437;-71
2021/08/10 12:24:30;;;;;;;11.80;6.10;;;24.20;99.90;;;;;;5051575;28;20455;-70
2021/08/10 12:26:57;;;;;;;7.63;5.30;;;24.10;99.90;;;;;;5049846;28;20442;-69
2021/08/10 12:29:34;;;;;;;8.60;5.80;;;24.10;99.90;;;;;;5051766;28;20939;-71
2021/08/10 12:32:02;;;;;;;7.67;5.37;;;24.10;99.90;;;;;;5046541;28;20445;-70
2021/08/10 12:34:30;;;;;;;8.13;5.40;;;24.00;99.90;;;;;;5049409;28;20591;-70
2021/08/10 12:36:58;;;;;;;6.77;5.13;;;24.00;99.90;;;;;;5050604;28;20442;-71
2021/08/10 12:39:27;;;;;;;6.43;4.70;;;23.80;99.80;;;;;;5052950;28;20466;-71
2021/08/10 12:41:58;;;;;;;4.60;3.70;;;23.80;99.90;;;;;;5052836;28;20438;-71
2021/08/10 12:44:26;;;;;;;4.73;4.20;;;23.80;99.30;;;;;;5045025;28;20438;-70
2021/08/10 12:46:56;;;;;;;9.50;4.87;;;24.00;99.50;;;;;;5046711;28;20461;-71
2021/08/10 12:49:35;;;;;;;12.67;5.00;;;23.80;98.90;;;;;;5051503;28;20454;-72
2021/08/10 12:52:03;;;;;;;6.90;5.07;;;23.80;99.10;;;;;;5045212;28;20442;-69
2021/08/10 12:54:33;;;;;;;7.57;4.93;;;23.60;99.00;;;;;;5053082;28;20919;-71
2021/08/10 12:57:01;;;;;;;10.20;5.40;;;23.30;99.60;;;;;;5050693;28;20450;-72